createdAt,value
2022-12-15T00:00:54.539Z,71.20
2022-12-15T00:03:40.503Z,71.20
2022-12-15T00:06:26.427Z,71.40
2022-12-15T00:09:14.445Z,72.00
2022-12-15T00:12:01.016Z,72.60
2022-12-15T00:14:46.893Z,72.00
2022-12-15T00:17:32.785Z,71.80
2022-12-15T00:20:18.707Z,71.70
2022-12-15T00:23:04.418Z,71.70
2022-12-15T00:25:50.279Z,72.10
2022-12-15T00:28:36.436Z,71.80
2022-12-15T00:31:22.144Z,71.40
2022-12-15T00:34:09.789Z,71.50
2022-12-15T00:36:55.368Z,71.20
2022-12-15T00:39:22.472Z,71.10
2022-12-15T00:41:50.147Z,71.00
2022-12-15T00:44:20.632Z,71.20
2022-12-15T00:46:57.104Z,71.20
2022-12-15T00:49:43.679Z,71.20
2022-12-15T00:52:29.525Z,70.90
2022-12-15T00:55:15.823Z,70.60
2022-12-15T00:58:01.316Z,70.60
2022-12-15T01:00:46.676Z,70.70
2022-12-15T01:03:36.538Z,70.90
2022-12-15T01:06:26.581Z,71.00
2022-12-15T01:09:12.192Z,71.50
2022-12-15T01:11:58.186Z,70.90
2022-12-15T01:14:43.836Z,71.00
2022-12-15T01:17:29.729Z,71.40
2022-12-15T01:20:15.306Z,70.90
2022-12-15T01:22:42.306Z,71.00
2022-12-15T01:25:09.366Z,71.50
2022-12-15T01:27:42.694Z,71.50
2022-12-15T01:30:10.891Z,71.20
2022-12-15T01:32:42.722Z,70.90
2022-12-15T01:35:12.896Z,70.80
2022-12-15T01:37:43.126Z,70.90
2022-12-15T01:40:30.812Z,70.90
2022-12-15T01:42:57.858Z,71.00
2022-12-15T01:45:27.802Z,70.70
2022-12-15T01:48:06.781Z,71.00
2022-12-15T01:50:36.344Z,71.00
2022-12-15T01:53:03.266Z,71.30
2022-12-15T01:55:30.744Z,71.50
2022-12-15T01:58:00.070Z,71.90
2022-12-15T02:00:27.103Z,72.10
2022-12-15T02:02:54.895Z,72.30
2022-12-15T02:05:22.169Z,72.40
2022-12-15T02:07:49.153Z,72.40
2022-12-15T02:10:19.454Z,72.30
2022-12-15T02:13:04.704Z,72.20
2022-12-15T02:15:37.490Z,72.00
2022-12-15T02:18:07.932Z,71.70
2022-12-15T02:20:53.703Z,71.10
2022-12-15T02:23:38.679Z,70.70
2022-12-15T02:26:11.894Z,70.40
2022-12-15T02:28:54.483Z,70.40
2022-12-15T02:31:49.945Z,70.50
2022-12-15T02:34:26.257Z,70.60
2022-12-15T02:36:56.256Z,71.40
2022-12-15T02:39:23.498Z,71.60
2022-12-15T02:41:52.357Z,71.50
2022-12-15T02:44:21.555Z,71.50
2022-12-15T02:47:07.328Z,71.50
2022-12-15T02:49:47.068Z,72.10
2022-12-15T02:52:17.107Z,72.20
2022-12-15T02:54:48.876Z,72.70
2022-12-15T02:57:20.495Z,73.10
2022-12-15T03:00:04.918Z,73.10
2022-12-15T03:02:32.390Z,73.20
2022-12-15T03:04:59.451Z,72.90
2022-12-15T03:07:31.310Z,73.70
2022-12-15T03:10:03.210Z,73.50
2022-12-15T03:12:33.429Z,72.80
2022-12-15T03:15:00.573Z,73.60
2022-12-15T03:17:28.605Z,74.50
2022-12-15T03:19:56.103Z,75.10
2022-12-15T03:22:23.215Z,75.30
2022-12-15T03:24:50.167Z,75.00
2022-12-15T03:27:18.656Z,74.60
2022-12-15T03:29:45.925Z,74.60
2022-12-15T03:32:12.951Z,74.50
2022-12-15T03:34:39.995Z,74.40
2022-12-15T03:37:07.034Z,74.50
2022-12-15T03:39:34.270Z,74.20
2022-12-15T03:42:52.207Z,74.40
2022-12-15T03:45:23.157Z,74.50
2022-12-15T03:47:50.691Z,75.10
2022-12-15T03:50:18.910Z,74.40
2022-12-15T03:52:46.050Z,74.30
2022-12-15T03:55:13.484Z,74.30
2022-12-15T03:57:40.997Z,75.00
2022-12-15T04:00:10.176Z,74.30
2022-12-15T04:02:37.323Z,74.00
2022-12-15T04:05:04.598Z,73.90
2022-12-15T04:07:35.819Z,74.10
2022-12-15T04:10:02.946Z,74.30
2022-12-15T04:12:30.005Z,73.80
2022-12-15T04:14:56.835Z,73.80
2022-12-15T04:17:24.514Z,73.70
2022-12-15T04:20:10.697Z,73.60
2022-12-15T04:22:40.801Z,74.20
2022-12-15T04:25:29.384Z,74.80
2022-12-15T04:28:15.771Z,74.90
2022-12-15T04:31:05.974Z,75.40
2022-12-15T04:33:51.631Z,75.70
2022-12-15T04:36:37.642Z,75.80
2022-12-15T04:39:23.424Z,76.00
2022-12-15T04:42:10.066Z,76.10
2022-12-15T04:44:55.536Z,75.60
2022-12-15T04:47:41.104Z,75.50
2022-12-15T04:50:26.649Z,75.00
2022-12-15T04:53:12.471Z,74.80
2022-12-15T04:55:58.400Z,74.30
2022-12-15T04:58:44.176Z,74.00
2022-12-15T05:01:30.028Z,73.20
2022-12-15T05:04:15.903Z,73.60
2022-12-15T05:07:01.594Z,74.20
2022-12-15T05:09:47.270Z,74.50
2022-12-15T05:12:32.967Z,74.40
2022-12-15T05:15:19.871Z,74.60
2022-12-15T05:18:07.262Z,74.70
2022-12-15T05:20:55.411Z,74.70
2022-12-15T05:23:41.043Z,74.40
2022-12-15T05:26:26.443Z,74.00
2022-12-15T05:29:12.297Z,73.60
2022-12-15T05:32:08.894Z,73.30
2022-12-15T05:34:36.236Z,73.60
2022-12-15T05:37:13.836Z,74.40
2022-12-15T05:39:40.889Z,75.20
2022-12-15T05:42:10.702Z,75.60
2022-12-15T05:44:37.957Z,76.10
2022-12-15T05:47:05.070Z,76.30
2022-12-15T05:49:32.047Z,76.10
2022-12-15T05:51:59.043Z,75.50
2022-12-15T05:54:28.147Z,75.60
2022-12-15T05:56:55.109Z,75.50
2022-12-15T05:59:22.246Z,75.30
2022-12-15T06:01:49.366Z,74.60
2022-12-15T06:04:17.189Z,74.20
2022-12-15T06:06:44.308Z,74.20
2022-12-15T06:09:11.159Z,75.20
2022-12-15T06:11:38.334Z,75.70
2022-12-15T06:14:05.430Z,76.10
2022-12-15T06:16:32.722Z,76.40
2022-12-15T06:19:00.257Z,76.60
2022-12-15T06:21:33.671Z,76.60
2022-12-15T06:24:00.922Z,76.10
2022-12-15T06:26:30.017Z,75.30
2022-12-15T06:28:57.781Z,74.70
2022-12-15T06:31:28.071Z,74.20
2022-12-15T06:34:01.262Z,74.20
2022-12-15T06:36:29.248Z,74.20
2022-12-15T06:38:58.744Z,73.80
2022-12-15T06:41:30.651Z,74.40
2022-12-15T06:43:57.993Z,75.00
2022-12-15T06:46:25.481Z,75.10
2022-12-15T06:48:53.395Z,75.20
2022-12-15T06:51:20.602Z,75.20
2022-12-15T06:53:54.479Z,74.40
2022-12-15T06:56:28.653Z,74.00
2022-12-15T06:58:59.550Z,73.80
2022-12-15T07:01:26.646Z,73.60
2022-12-15T07:03:55.527Z,73.70
2022-12-15T07:06:22.849Z,73.90
2022-12-15T07:08:53.535Z,74.00
2022-12-15T07:11:21.265Z,73.90
2022-12-15T07:13:51.972Z,73.60
2022-12-15T07:16:19.114Z,73.40
2022-12-15T07:18:46.132Z,72.80
2022-12-15T07:21:13.834Z,72.60
2022-12-15T07:23:54.068Z,72.30
2022-12-15T07:26:22.736Z,72.40
2022-12-15T07:28:49.746Z,72.20
2022-12-15T07:31:17.366Z,72.20
2022-12-15T07:33:44.486Z,72.40
2022-12-15T07:36:12.060Z,72.50
2022-12-15T07:38:41.453Z,72.10
2022-12-15T07:41:08.876Z,72.00
2022-12-15T07:43:37.156Z,71.90
2022-12-15T07:46:04.834Z,71.80
2022-12-15T07:48:38.123Z,71.60
2022-12-15T07:51:11.152Z,71.60
2022-12-15T07:53:40.907Z,71.80
2022-12-15T07:56:09.908Z,72.10
2022-12-15T07:58:37.707Z,71.70
2022-12-15T08:01:07.150Z,71.50
2022-12-15T08:03:35.257Z,71.30
2022-12-15T08:06:07.970Z,71.00
2022-12-15T08:08:37.066Z,71.40
2022-12-15T08:11:05.645Z,71.70
2022-12-15T08:16:21.876Z,71.70
2022-12-15T08:18:49.281Z,72.20
2022-12-15T08:21:17.308Z,72.00
2022-12-15T08:23:44.733Z,71.70
2022-12-15T08:26:12.416Z,71.00
2022-12-15T08:28:39.914Z,70.90
2022-12-15T08:31:07.538Z,70.80
2022-12-15T08:33:35.972Z,70.10
2022-12-15T08:36:03.879Z,70.50
2022-12-15T08:38:32.164Z,70.90
2022-12-15T08:40:59.133Z,71.20
2022-12-15T08:43:26.071Z,71.60
2022-12-15T08:45:53.658Z,72.30
2022-12-15T08:48:20.606Z,73.00
2022-12-15T08:50:47.634Z,73.50
2022-12-15T08:53:30.788Z,73.50
2022-12-15T08:56:06.489Z,73.30
2022-12-15T08:58:33.562Z,73.20
2022-12-15T09:01:03.369Z,72.80
2022-12-15T09:03:30.817Z,71.90
2022-12-15T09:06:05.516Z,72.00
2022-12-15T09:08:32.869Z,71.80
2022-12-15T09:11:00.115Z,71.40
2022-12-15T09:13:27.313Z,71.30
2022-12-15T09:16:09.473Z,71.50
2022-12-15T09:18:39.858Z,71.40
2022-12-15T09:21:07.568Z,71.00
2022-12-15T09:23:35.663Z,71.70
2022-12-15T09:26:07.808Z,71.70
2022-12-15T09:28:35.951Z,71.70
2022-12-15T09:31:04.329Z,71.40
2022-12-15T09:33:33.373Z,70.90
2022-12-15T09:36:01.162Z,71.00
2022-12-15T09:38:43.914Z,70.80
2022-12-15T09:41:13.593Z,70.40
2022-12-15T09:43:50.172Z,70.30
2022-12-15T09:46:21.734Z,69.80
2022-12-15T09:48:49.195Z,69.60
2022-12-15T09:51:16.810Z,69.70
2022-12-15T09:53:59.525Z,69.80
2022-12-15T09:56:31.100Z,70.20
2022-12-15T09:59:06.022Z,69.50
2022-12-15T10:01:43.425Z,69.50
2022-12-15T10:04:20.257Z,69.20
2022-12-15T10:06:50.662Z,69.20
2022-12-15T10:09:21.631Z,69.00
2022-12-15T10:11:59.206Z,69.20
2022-12-15T10:14:45.616Z,69.60
2022-12-15T10:17:19.865Z,69.30
2022-12-15T10:20:00.900Z,69.30
2022-12-15T10:22:29.685Z,70.10
2022-12-15T10:25:14.245Z,70.40
2022-12-15T10:28:00.182Z,70.50
2022-12-15T10:30:27.457Z,70.80
2022-12-15T10:32:58.527Z,71.70
2022-12-15T10:35:28.291Z,71.70
2022-12-15T10:37:57.816Z,71.60
2022-12-15T10:40:43.662Z,71.00
2022-12-15T10:43:28.106Z,70.80
2022-12-15T10:46:05.960Z,70.10
2022-12-15T10:48:33.046Z,69.30
2022-12-15T10:51:19.079Z,69.20
2022-12-15T10:53:50.530Z,68.90
2022-12-15T10:56:19.885Z,69.00
2022-12-15T10:58:51.886Z,68.70
2022-12-15T11:01:21.967Z,69.10
2022-12-15T11:03:52.132Z,69.60
2022-12-15T11:06:21.970Z,69.70
2022-12-15T11:08:49.950Z,69.50
2022-12-15T11:11:50.375Z,69.20
2022-12-15T11:14:19.137Z,68.90
2022-12-15T11:16:48.968Z,68.90
2022-12-15T11:19:36.388Z,69.20
2022-12-15T11:22:17.408Z,68.90
2022-12-15T11:24:45.708Z,68.40
2022-12-15T11:27:15.807Z,68.40
2022-12-15T11:29:57.287Z,68.50
2022-12-15T11:32:25.356Z,68.60
2022-12-15T11:34:52.444Z,68.70
2022-12-15T11:37:32.427Z,68.40
2022-12-15T11:40:21.946Z,68.70
2022-12-15T11:42:49.171Z,68.80
2022-12-15T11:45:17.620Z,68.20
2022-12-15T11:47:47.364Z,68.00
2022-12-15T11:50:25.966Z,68.60
2022-12-15T11:53:13.164Z,68.40
2022-12-15T11:55:46.934Z,67.80
2022-12-15T11:58:20.137Z,67.50
2022-12-15T12:00:51.018Z,67.80
2022-12-15T12:03:34.967Z,68.50
2022-12-15T12:06:10.896Z,68.80
2022-12-15T12:09:10.599Z,68.80
2022-12-15T12:11:41.691Z,68.40
2022-12-15T12:14:21.196Z,67.80
2022-12-15T12:17:01.952Z,68.40
2022-12-15T12:19:34.894Z,68.60
2022-12-15T12:22:07.126Z,69.30
2022-12-15T12:24:37.758Z,69.30
2022-12-15T12:27:24.971Z,69.50
2022-12-15T12:29:53.722Z,69.60
2022-12-15T12:32:21.937Z,69.40
2022-12-15T12:37:47.022Z,70.30
2022-12-15T12:40:20.123Z,70.00
2022-12-15T12:42:59.394Z,69.80
2022-12-15T12:45:28.054Z,69.70
2022-12-15T12:47:55.610Z,69.60
2022-12-15T12:50:26.184Z,69.50
2022-12-15T12:52:54.683Z,69.30
2022-12-15T12:55:30.924Z,69.40
2022-12-15T12:57:58.020Z,69.40
2022-12-15T13:00:26.692Z,69.60
2022-12-15T13:03:17.214Z,69.80
2022-12-15T13:05:44.922Z,70.10
2022-12-15T13:08:14.947Z,70.70
2022-12-15T13:10:42.574Z,70.80
2022-12-15T13:13:19.012Z,71.40
2022-12-15T13:15:49.099Z,72.80
2022-12-15T13:18:19.692Z,72.40
2022-12-15T13:20:51.350Z,72.50
2022-12-15T13:23:24.065Z,72.10
2022-12-15T13:25:55.508Z,72.00
2022-12-15T13:28:30.172Z,72.30
2022-12-15T13:31:32.810Z,73.10
2022-12-15T13:34:01.884Z,73.60
2022-12-15T13:36:38.317Z,73.40
2022-12-15T13:39:05.285Z,73.30
2022-12-15T13:41:33.401Z,73.10
2022-12-15T13:44:00.296Z,72.90
2022-12-15T13:46:28.506Z,72.60
2022-12-15T13:49:14.230Z,72.10
2022-12-15T13:51:44.488Z,72.00
2022-12-15T13:54:22.095Z,72.30
2022-12-15T13:56:52.088Z,72.40
2022-12-15T13:59:21.201Z,72.30
2022-12-15T14:01:57.922Z,72.00
2022-12-15T14:04:26.137Z,72.00
2022-12-15T14:06:54.437Z,72.50
2022-12-15T14:09:52.597Z,73.00
2022-12-15T14:12:20.248Z,73.70
2022-12-15T14:14:49.137Z,74.30
2022-12-15T14:17:16.624Z,74.50
2022-12-15T14:19:50.885Z,74.70
2022-12-15T14:22:27.664Z,74.60
2022-12-15T14:25:02.750Z,74.40
2022-12-15T14:27:30.807Z,74.20
2022-12-15T14:30:10.095Z,74.10
2022-12-15T14:32:37.135Z,73.90
2022-12-15T14:35:04.114Z,73.70
2022-12-15T14:37:31.227Z,73.80
2022-12-15T14:39:58.130Z,74.10
2022-12-15T14:42:26.158Z,74.40
2022-12-15T14:44:57.781Z,74.70
2022-12-15T14:47:34.700Z,74.40
2022-12-15T14:50:02.671Z,74.20
2022-12-15T14:52:37.011Z,74.20
2022-12-15T14:55:22.479Z,74.20
2022-12-15T14:57:49.460Z,74.10
2022-12-15T15:00:37.047Z,74.00
2022-12-15T15:03:10.853Z,70.00
2022-12-15T15:05:48.466Z,74.30
2022-12-15T15:08:16.416Z,74.30
2022-12-15T15:10:43.980Z,74.40
2022-12-15T15:13:35.976Z,74.20
2022-12-15T15:16:07.124Z,73.90
2022-12-15T15:18:34.366Z,74.00
2022-12-15T15:21:05.213Z,73.80
2022-12-15T15:23:32.238Z,73.90
2022-12-15T15:26:05.396Z,73.90
2022-12-15T15:28:39.333Z,73.90
2022-12-15T15:31:24.664Z,73.90
2022-12-15T15:33:52.011Z,74.00
2022-12-15T15:36:18.999Z,73.70
2022-12-15T15:38:46.893Z,73.80
2022-12-15T15:41:18.127Z,74.00
2022-12-15T15:43:45.205Z,73.60
2022-12-15T15:46:13.404Z,73.40
2022-12-15T15:48:44.948Z,73.60
2022-12-15T15:51:11.952Z,73.60
2022-12-15T15:53:38.920Z,73.60
2022-12-15T15:56:08.903Z,73.60
2022-12-15T15:58:36.262Z,73.80
2022-12-15T16:01:08.107Z,73.80
2022-12-15T16:03:38.455Z,73.90
2022-12-15T16:06:06.537Z,74.50
2022-12-15T16:08:34.927Z,74.50
2022-12-15T16:11:02.102Z,74.30
2022-12-15T16:13:31.494Z,74.20
2022-12-15T16:15:58.513Z,73.90
2022-12-15T16:18:25.391Z,73.70
2022-12-15T16:20:52.480Z,74.20
2022-12-15T16:23:26.983Z,74.10
2022-12-15T16:25:54.793Z,74.20
2022-12-15T16:28:29.238Z,74.10
2022-12-15T16:30:58.663Z,74.00
2022-12-15T16:33:25.859Z,73.70
2022-12-15T16:35:53.104Z,74.30
2022-12-15T16:38:27.611Z,74.90
2022-12-15T16:40:55.333Z,75.70
2022-12-15T16:43:24.145Z,75.90
2022-12-15T16:45:51.522Z,75.60
2022-12-15T16:48:18.531Z,75.40
2022-12-15T16:50:52.394Z,75.20
2022-12-15T16:53:20.574Z,74.80
2022-12-15T16:55:48.482Z,74.90
2022-12-15T16:58:16.013Z,74.80
2022-12-15T17:00:43.174Z,74.80
2022-12-15T17:03:13.803Z,74.60
2022-12-15T17:05:41.144Z,74.60
2022-12-15T17:08:09.792Z,74.80
2022-12-15T17:10:36.763Z,75.00
2022-12-15T17:13:04.691Z,74.60
2022-12-15T17:15:31.912Z,74.20
2022-12-15T17:18:01.055Z,74.60
2022-12-15T17:20:30.093Z,74.50
2022-12-15T17:23:05.102Z,74.50
2022-12-15T17:28:32.627Z,74.40
2022-12-15T17:30:59.752Z,74.00
2022-12-15T17:33:27.691Z,73.80
2022-12-15T17:35:55.487Z,73.80
2022-12-15T17:38:22.766Z,73.90
2022-12-15T17:40:50.120Z,74.10
2022-12-15T17:43:17.933Z,74.20
2022-12-15T17:45:45.068Z,74.00
2022-12-15T17:48:12.374Z,73.70
2022-12-15T17:50:39.720Z,73.40
2022-12-15T17:53:06.649Z,73.70
2022-12-15T17:55:35.441Z,73.90
2022-12-15T17:58:02.639Z,74.20
2022-12-15T18:00:30.135Z,74.50
2022-12-15T18:02:57.491Z,74.80
2022-12-15T18:05:28.499Z,74.80
2022-12-15T18:07:56.374Z,74.80
2022-12-15T18:10:26.367Z,74.60
2022-12-15T18:12:53.493Z,74.10
2022-12-15T18:15:24.669Z,73.80
2022-12-15T18:17:51.550Z,73.50
2022-12-15T18:20:19.062Z,73.30
2022-12-15T18:22:46.051Z,73.10
2022-12-15T18:25:16.856Z,73.00
2022-12-15T18:27:43.804Z,72.70
2022-12-15T18:30:15.555Z,72.60
2022-12-15T18:32:42.482Z,72.90
2022-12-15T18:35:29.747Z,72.80
2022-12-15T18:37:56.888Z,72.70
2022-12-15T18:40:26.720Z,73.00
2022-12-15T18:42:54.584Z,72.90
2022-12-15T18:45:26.879Z,72.90
2022-12-15T18:47:55.220Z,73.10
2022-12-15T18:50:23.215Z,73.10
2022-12-15T18:52:56.296Z,73.30
2022-12-15T18:55:23.440Z,73.00
2022-12-15T18:57:51.763Z,73.00
2022-12-15T19:00:26.061Z,72.60
2022-12-15T19:02:53.741Z,73.10
2022-12-15T19:05:29.826Z,73.40
2022-12-15T19:07:57.802Z,73.00
2022-12-15T19:10:25.452Z,73.50
2022-12-15T19:12:58.257Z,73.70
2022-12-15T19:15:25.772Z,73.80
2022-12-15T19:18:11.242Z,74.20
2022-12-15T19:20:56.735Z,74.20
2022-12-15T19:23:23.767Z,73.90
2022-12-15T19:25:50.794Z,73.50
2022-12-15T19:28:19.356Z,73.60
2022-12-15T19:30:46.386Z,73.50
2022-12-15T19:33:16.622Z,73.20
2022-12-15T19:35:44.970Z,72.60
2022-12-15T19:38:17.274Z,72.50
2022-12-15T19:40:44.431Z,72.60
2022-12-15T19:43:13.128Z,72.60
2022-12-15T19:45:40.430Z,72.30
2022-12-15T19:48:07.315Z,72.20
2022-12-15T19:50:36.813Z,72.20
2022-12-15T19:53:06.714Z,72.10
2022-12-15T19:55:34.607Z,71.90
2022-12-15T19:58:03.900Z,71.60
2022-12-15T20:00:30.931Z,71.20
2022-12-15T20:02:57.967Z,71.30
2022-12-15T20:05:25.101Z,71.40
2022-12-15T20:07:52.464Z,71.20
2022-12-15T20:10:24.652Z,72.00
2022-12-15T20:12:54.706Z,71.50
2022-12-15T20:15:22.791Z,71.20
2022-12-15T20:17:50.856Z,71.50
2022-12-15T20:20:18.557Z,71.10
2022-12-15T20:22:45.814Z,70.90
2022-12-15T20:25:20.610Z,71.20
2022-12-15T20:27:47.839Z,71.70
2022-12-15T20:30:20.222Z,71.80
2022-12-15T20:32:47.293Z,71.60
2022-12-15T20:35:15.527Z,72.00
2022-12-15T20:37:42.703Z,72.40
2022-12-15T20:40:21.690Z,73.30
2022-12-15T20:42:49.306Z,72.70
2022-12-15T20:45:16.618Z,72.40
2022-12-15T20:47:44.126Z,72.10
2022-12-15T20:50:21.846Z,72.00
2022-12-15T20:52:48.768Z,72.10
2022-12-15T20:55:16.183Z,72.20
2022-12-15T20:57:43.353Z,71.70
2022-12-15T21:00:13.298Z,72.10
2022-12-15T21:02:40.867Z,72.30
2022-12-15T21:05:08.574Z,72.50
2022-12-15T21:07:35.908Z,72.30
2022-12-15T21:10:02.879Z,72.20
2022-12-15T21:12:30.086Z,72.20
2022-12-15T21:14:57.609Z,72.10
2022-12-15T21:17:26.304Z,72.40
2022-12-15T21:19:53.356Z,72.40
2022-12-15T21:22:23.059Z,72.60
2022-12-15T21:24:50.606Z,72.50
2022-12-15T21:27:17.666Z,72.90
2022-12-15T21:29:50.396Z,73.20
2022-12-15T21:32:19.442Z,73.40
2022-12-15T21:34:46.411Z,73.50
2022-12-15T21:37:22.027Z,73.70
2022-12-15T21:39:49.319Z,73.70
2022-12-15T21:42:16.552Z,73.70
2022-12-15T21:44:43.536Z,73.70
2022-12-15T21:47:49.440Z,73.80
2022-12-15T21:50:17.071Z,73.60
2022-12-15T21:52:47.588Z,73.90
2022-12-15T21:55:17.970Z,74.10
2022-12-15T21:57:45.357Z,74.10
2022-12-15T22:00:13.528Z,74.20
2022-12-15T22:02:41.546Z,73.70
2022-12-15T22:05:19.127Z,73.40
2022-12-15T22:07:46.233Z,73.90
2022-12-15T22:10:13.248Z,74.10
2022-12-15T22:12:40.199Z,74.00
2022-12-15T22:15:17.685Z,74.10
2022-12-15T22:17:44.657Z,73.90
2022-12-15T22:20:18.769Z,74.10
2022-12-15T22:22:45.978Z,74.20
2022-12-15T22:25:16.937Z,73.80
2022-12-15T22:27:44.717Z,73.60
2022-12-15T22:30:15.566Z,73.40
2022-12-15T22:32:42.694Z,73.90
2022-12-15T22:35:19.353Z,74.40
2022-12-15T22:37:46.328Z,74.90
2022-12-15T22:40:13.523Z,74.60
2022-12-15T22:42:41.426Z,74.20
2022-12-15T22:45:13.202Z,73.90
2022-12-15T22:47:40.249Z,73.70
2022-12-15T22:50:07.385Z,73.40
2022-12-15T22:52:36.440Z,73.20
2022-12-15T22:55:03.337Z,73.40
2022-12-15T22:57:30.431Z,73.80
2022-12-15T23:00:00.851Z,73.80
2022-12-15T23:02:28.771Z,73.90
2022-12-15T23:04:55.690Z,74.40
2022-12-15T23:07:22.788Z,74.40
2022-12-15T23:09:49.669Z,74.70
2022-12-15T23:12:16.520Z,74.70
2022-12-15T23:15:02.100Z,74.60
2022-12-15T23:17:29.305Z,74.40
2022-12-15T23:19:56.358Z,74.30
2022-12-15T23:22:23.334Z,74.40
2022-12-15T23:24:50.329Z,74.80
2022-12-15T23:27:17.240Z,74.90
2022-12-15T23:29:44.188Z,75.30
2022-12-15T23:32:11.114Z,75.60
2022-12-15T23:34:38.002Z,75.60
2022-12-15T23:37:04.914Z,75.40
2022-12-15T23:39:31.766Z,76.10
2022-12-15T23:41:58.655Z,76.40
2022-12-15T23:44:25.583Z,76.70
2022-12-15T23:46:52.578Z,76.60
2022-12-15T23:49:19.719Z,76.50
2022-12-15T23:51:46.644Z,77.10
2022-12-15T23:54:14.051Z,77.70
2022-12-15T23:56:40.960Z,78.00
2022-12-15T23:59:07.890Z,78.00
